Terminal Aerodrome Forecast
Issued by NWS

Home | Current Version | Previous Version | Text Only | Print | Product List | Glossary On
Versions: 1 2 3 4 5 6 7 8 9 10 11 12 13 14 15 16 17 18 19 20 21 22 23 24 25 26 27 28 29 30 31 32 33 34 35
000
FTUS46 KPQR 190821 AAA
TAFONP
TAF AMD
KONP 190821Z 1908/2006 31005KT P6SM SCT200
      TEMPO 1910/1912 2SM BR BKN005
     FM191200 VRB02KT 1/2SM FG OVC003
     FM191600 36005KT 4SM BR BKN007
     FM191800 35011KT P6SM SCT012
     FM200000 01008KT P6SM SKC=

USA.gov is the U.S. government's official web portal to all federal, state and local government web resources and services.